createdAt,value
2022-09-28T00:02:22.043Z,1.60
2022-09-28T00:04:52.274Z,1.80
2022-09-28T00:07:25.039Z,2.03
2022-09-28T00:09:55.254Z,1.70
2022-09-28T00:12:28.361Z,1.80
2022-09-28T00:14:58.595Z,2.03
2022-09-28T00:17:29.046Z,1.95
2022-09-28T00:19:59.661Z,1.98
2022-09-28T00:22:32.401Z,1.90
2022-09-28T00:25:02.799Z,2.30
2022-09-28T00:27:32.897Z,2.00
2022-09-28T00:30:03.184Z,2.50
2022-09-28T00:32:34.813Z,2.53
2022-09-28T00:35:04.962Z,2.38
2022-09-28T00:37:37.680Z,2.15
2022-09-28T00:40:09.032Z,2.85
2022-09-28T00:42:43.069Z,2.70
2022-09-28T00:47:54.226Z,3.15
2022-09-28T00:50:29.748Z,3.55
2022-09-28T00:53:08.023Z,3.58
2022-09-28T00:55:43.089Z,3.75
2022-09-28T00:58:19.686Z,4.30
2022-09-28T01:00:50.214Z,3.78
2022-09-28T01:03:20.805Z,3.95
2022-09-28T01:05:54.538Z,4.25
2022-09-28T01:08:29.399Z,4.53
2022-09-28T01:11:00.590Z,4.70
2022-09-28T01:13:34.095Z,4.15
2022-09-28T01:16:14.476Z,4.65
2022-09-28T01:18:53.882Z,4.90
2022-09-28T01:21:25.510Z,4.70
2022-09-28T01:24:34.028Z,4.43
2022-09-28T01:27:16.183Z,4.70
2022-09-28T01:29:55.546Z,5.10
2022-09-28T01:32:39.659Z,5.10
2022-09-28T01:35:12.988Z,4.63
2022-09-28T01:37:52.088Z,5.00
2022-09-28T01:40:25.897Z,5.28
2022-09-28T01:43:05.231Z,4.80
2022-09-28T01:45:44.133Z,5.55
2022-09-28T01:48:20.549Z,5.80
2022-09-28T01:50:55.442Z,5.13
2022-09-28T01:53:33.306Z,4.93
2022-09-28T01:56:08.202Z,5.38
2022-09-28T01:58:47.103Z,5.88
2022-09-28T02:01:26.338Z,5.68
2022-09-28T02:04:03.513Z,5.80
2022-09-28T02:06:40.683Z,5.07
2022-09-28T02:09:16.481Z,5.60
2022-09-28T02:11:52.061Z,4.80
2022-09-28T02:14:27.817Z,5.65
2022-09-28T02:17:02.212Z,4.75
2022-09-28T02:19:34.576Z,5.38
2022-09-28T02:22:14.803Z,5.18
2022-09-28T02:24:52.920Z,4.80
2022-09-28T02:27:32.692Z,4.82
2022-09-28T02:30:06.804Z,4.35
2022-09-28T02:32:42.760Z,4.13
2022-09-28T02:35:16.048Z,3.90
2022-09-28T02:37:47.445Z,3.20
2022-09-28T02:40:19.496Z,3.88
2022-09-28T02:42:59.622Z,3.67
2022-09-28T02:45:43.888Z,3.63
2022-09-28T02:48:42.781Z,3.65
2022-09-28T02:51:24.078Z,3.20
2022-09-28T02:54:17.998Z,3.25
2022-09-28T02:57:01.944Z,3.67
2022-09-28T02:59:47.807Z,3.00
2022-09-28T03:02:29.211Z,3.10
2022-09-28T03:05:15.991Z,3.00
2022-09-28T03:07:52.979Z,2.78
2022-09-28T03:10:28.585Z,2.75
2022-09-28T03:12:59.515Z,2.90
2022-09-28T03:15:31.661Z,2.88
2022-09-28T03:18:04.908Z,2.50
2022-09-28T03:20:36.378Z,2.60
2022-09-28T03:23:23.832Z,2.67
2022-09-28T03:25:56.231Z,2.40
2022-09-28T03:28:26.681Z,2.17
2022-09-28T03:30:57.159Z,2.25
2022-09-28T03:33:32.633Z,2.20
2022-09-28T03:36:02.884Z,2.17
2022-09-28T03:38:33.015Z,1.98
2022-09-28T03:41:04.146Z,1.83
2022-09-28T03:43:34.676Z,1.40
2022-09-28T03:46:05.336Z,1.85
2022-09-28T03:48:39.287Z,1.52
2022-09-28T03:51:14.324Z,1.75
2022-09-28T03:53:44.523Z,1.27
2022-09-28T03:56:17.587Z,1.60
2022-09-28T03:58:47.838Z,1.67
2022-09-28T04:01:18.940Z,1.70
2022-09-28T04:03:57.220Z,1.50
2022-09-28T04:06:29.075Z,1.67
2022-09-28T04:08:59.303Z,1.38
2022-09-28T04:11:38.475Z,1.88
2022-09-28T04:14:17.883Z,1.83
2022-09-28T04:16:48.392Z,1.90
2022-09-28T04:19:21.571Z,1.70
2022-09-28T04:21:54.616Z,1.35
2022-09-28T04:24:24.859Z,1.50
2022-09-28T04:27:15.053Z,1.70
2022-09-28T04:29:44.311Z,1.75
2022-09-28T04:32:14.806Z,1.67
2022-09-28T04:34:50.595Z,1.63
2022-09-28T04:37:20.700Z,1.60
2022-09-28T04:39:50.972Z,1.52
2022-09-28T04:42:21.154Z,1.33
2022-09-28T04:44:51.358Z,1.50
2022-09-28T04:47:21.802Z,1.48
2022-09-28T04:49:54.583Z,1.10
2022-09-28T04:52:24.738Z,1.30
2022-09-28T04:54:55.064Z,1.50
2022-09-28T04:57:25.240Z,1.65
2022-09-28T04:59:55.504Z,1.40
2022-09-28T05:02:25.712Z,1.45
2022-09-28T05:04:59.084Z,1.60
2022-09-28T05:07:29.811Z,1.63
2022-09-28T05:10:00.755Z,1.80
2022-09-28T05:12:30.893Z,1.40
2022-09-28T05:15:04.029Z,1.45
2022-09-28T05:17:36.480Z,1.38
2022-09-28T05:20:14.733Z,1.90
2022-09-28T05:22:44.842Z,1.45
2022-09-28T05:25:15.069Z,1.40
2022-09-28T05:27:45.448Z,1.45
2022-09-28T05:30:16.097Z,1.40
2022-09-28T05:32:47.027Z,1.40
2022-09-28T05:35:20.106Z,1.80
2022-09-28T05:37:50.453Z,1.80
2022-09-28T05:40:20.831Z,1.42
2022-09-28T05:42:51.215Z,1.50
2022-09-28T05:45:21.401Z,1.58
2022-09-28T05:47:51.480Z,1.40
2022-09-28T05:50:24.779Z,1.50
2022-09-28T05:53:02.868Z,1.65
2022-09-28T05:55:33.777Z,1.50
2022-09-28T05:58:05.426Z,1.17
2022-09-28T06:00:36.807Z,1.40
2022-09-28T06:03:09.481Z,1.30
2022-09-28T06:05:43.051Z,1.00
2022-09-28T06:08:13.668Z,1.10
2022-09-28T06:10:43.817Z,1.30
2022-09-28T06:13:14.173Z,1.20
2022-09-28T06:15:46.515Z,1.20
2022-09-28T06:18:17.752Z,0.90
2022-09-28T06:20:50.553Z,1.00
2022-09-28T06:23:20.929Z,1.10
2022-09-28T06:25:52.186Z,1.10
2022-09-28T06:28:22.414Z,1.00
2022-09-28T06:30:53.438Z,1.10
2022-09-28T06:33:25.791Z,0.70
2022-09-28T06:35:58.635Z,0.90
2022-09-28T06:38:29.359Z,0.90
2022-09-28T06:41:00.764Z,0.80
2022-09-28T06:43:34.346Z,0.80
2022-09-28T06:46:05.269Z,0.93
2022-09-28T06:48:36.183Z,0.70
2022-09-28T06:51:09.313Z,0.88
2022-09-28T06:53:39.551Z,1.02
2022-09-28T06:56:11.602Z,0.90
2022-09-28T06:58:42.053Z,1.00
2022-09-28T07:01:12.469Z,0.90
2022-09-28T07:03:43.285Z,1.10
2022-09-28T07:06:16.329Z,1.00
2022-09-28T07:08:53.690Z,1.00
2022-09-28T07:11:29.912Z,0.77
2022-09-28T07:14:00.066Z,1.10
2022-09-28T07:16:55.421Z,1.08
2022-09-28T07:19:20.470Z,0.90
2022-09-28T07:22:03.745Z,0.80
2022-09-28T07:24:35.054Z,1.00
2022-09-28T07:27:05.990Z,0.80
2022-09-28T07:29:36.211Z,0.80
2022-09-28T07:32:06.423Z,0.77
2022-09-28T07:34:43.724Z,0.80
2022-09-28T07:37:18.954Z,0.80
2022-09-28T07:40:01.841Z,0.80
2022-09-28T07:42:34.210Z,0.80
2022-09-28T07:45:04.642Z,0.73
2022-09-28T07:47:35.395Z,0.82
2022-09-28T07:50:06.308Z,0.98
2022-09-28T07:52:39.093Z,0.75
2022-09-28T07:55:10.828Z,0.80
2022-09-28T07:57:40.945Z,0.70
2022-09-28T08:00:12.614Z,0.90
2022-09-28T08:02:42.808Z,0.60
2022-09-28T08:05:13.597Z,0.90
2022-09-28T08:07:48.640Z,0.85
2022-09-28T08:10:19.639Z,0.80
2022-09-28T08:12:49.970Z,0.70
2022-09-28T08:15:20.197Z,0.90
2022-09-28T08:17:51.030Z,0.80
2022-09-28T08:20:33.711Z,0.80
2022-09-28T08:23:09.233Z,0.73
2022-09-28T08:25:39.577Z,0.80
2022-09-28T08:28:10.031Z,0.95
2022-09-28T08:30:40.160Z,0.80
2022-09-28T08:33:10.488Z,0.75
2022-09-28T08:35:41.123Z,0.80
2022-09-28T08:38:14.222Z,1.00
2022-09-28T08:40:53.001Z,0.88
2022-09-28T08:43:48.711Z,0.70
2022-09-28T08:46:27.120Z,0.82
2022-09-28T08:52:03.382Z,0.77
2022-09-28T08:54:51.812Z,0.60
2022-09-28T08:57:25.880Z,0.68
2022-09-28T08:59:58.620Z,0.75
2022-09-28T09:02:33.837Z,1.05
2022-09-28T09:05:11.351Z,0.80
2022-09-28T09:08:08.331Z,0.77
2022-09-28T09:10:53.626Z,0.80
2022-09-28T09:13:44.344Z,1.10
2022-09-28T09:16:25.674Z,0.70
2022-09-28T09:19:05.234Z,1.10
2022-09-28T09:21:43.402Z,1.20
2022-09-28T09:24:28.685Z,0.90
2022-09-28T09:27:09.288Z,1.00
2022-09-28T09:29:54.563Z,1.10
2022-09-28T09:32:46.584Z,0.90
2022-09-28T09:35:31.584Z,1.10
2022-09-28T09:38:16.977Z,1.00
2022-09-28T09:41:01.696Z,1.30
2022-09-28T09:43:56.181Z,1.00
2022-09-28T09:49:08.933Z,0.80
2022-09-28T09:51:45.854Z,1.00
2022-09-28T09:54:23.597Z,1.00
2022-09-28T09:57:00.837Z,1.20
2022-09-28T09:59:39.337Z,1.00
2022-09-28T10:02:22.180Z,1.17
2022-09-28T10:04:55.342Z,1.00
2022-09-28T10:07:29.609Z,1.20
2022-09-28T10:10:03.623Z,1.08
2022-09-28T10:12:33.970Z,1.10
2022-09-28T10:15:10.129Z,0.88
2022-09-28T10:17:40.880Z,1.08
2022-09-28T10:20:15.358Z,0.90
2022-09-28T10:22:46.787Z,1.10
2022-09-28T10:25:18.468Z,1.02
2022-09-28T10:27:52.774Z,1.00
2022-09-28T10:30:28.611Z,0.90
2022-09-28T10:32:59.619Z,0.95
2022-09-28T10:35:32.542Z,1.00
2022-09-28T10:38:04.933Z,1.10
2022-09-28T10:40:43.617Z,1.00
2022-09-28T10:43:24.488Z,1.00
2022-09-28T10:46:09.305Z,1.00
2022-09-28T10:48:52.249Z,0.90
2022-09-28T10:51:22.902Z,1.00
2022-09-28T10:54:02.948Z,0.95
2022-09-28T10:56:40.015Z,1.00
2022-09-28T10:59:26.461Z,0.80
2022-09-28T11:02:03.163Z,1.10
2022-09-28T11:04:39.904Z,0.85
2022-09-28T11:07:20.101Z,1.00
2022-09-28T11:09:52.470Z,1.00
2022-09-28T11:12:25.577Z,1.13
2022-09-28T11:15:01.081Z,1.00
2022-09-28T11:17:38.779Z,1.00
2022-09-28T11:20:35.667Z,1.00
2022-09-28T11:23:21.728Z,1.05
2022-09-28T11:26:01.557Z,0.93
2022-09-28T11:28:35.411Z,0.90
2022-09-28T11:31:07.353Z,0.90
2022-09-28T11:33:43.268Z,0.93
2022-09-28T11:36:26.170Z,0.90
2022-09-28T11:39:09.062Z,1.40
2022-09-28T11:41:51.507Z,1.00
2022-09-28T11:44:39.085Z,1.10
2022-09-28T11:47:36.324Z,1.10
2022-09-28T11:50:22.938Z,1.02
2022-09-28T11:53:02.439Z,1.00
2022-09-28T11:55:38.935Z,0.93
2022-09-28T11:58:16.235Z,1.00
2022-09-28T12:00:52.666Z,1.00
2022-09-28T12:03:33.626Z,0.80
2022-09-28T12:06:10.234Z,1.10
2022-09-28T12:08:46.273Z,1.10
2022-09-28T12:11:21.167Z,0.90
2022-09-28T12:13:57.923Z,0.90
2022-09-28T12:17:01.015Z,0.90
2022-09-28T12:19:29.311Z,1.20
2022-09-28T12:22:08.115Z,0.90
2022-09-28T12:24:43.448Z,1.10
2022-09-28T12:27:20.137Z,0.80
2022-09-28T12:29:56.831Z,1.20
2022-09-28T12:32:35.758Z,1.00
2022-09-28T12:35:13.368Z,1.08
2022-09-28T12:37:59.779Z,0.90
2022-09-28T12:40:40.304Z,1.00
2022-09-28T12:43:36.504Z,1.10
2022-09-28T12:46:33.734Z,1.00
2022-09-28T12:52:31.913Z,1.20
2022-09-28T12:55:33.392Z,1.17
2022-09-28T12:58:16.953Z,1.40
2022-09-28T13:01:00.197Z,1.20
2022-09-28T13:04:05.991Z,1.20
2022-09-28T13:06:55.182Z,1.38
2022-09-28T13:09:28.659Z,1.40
2022-09-28T13:12:22.128Z,1.20
2022-09-28T13:15:17.549Z,2.63
2022-09-28T13:18:01.889Z,1.30
2022-09-28T13:21:02.108Z,1.23
2022-09-28T13:23:37.380Z,1.17
2022-09-28T13:26:17.506Z,1.30
2022-09-28T13:28:54.858Z,1.13
2022-09-28T13:31:34.040Z,1.35
2022-09-28T13:34:13.185Z,1.35
2022-09-28T13:36:47.985Z,1.23
2022-09-28T13:39:40.763Z,1.15
2022-09-28T13:42:12.552Z,1.13
2022-09-28T13:45:09.689Z,1.17
2022-09-28T13:47:58.076Z,1.02
2022-09-28T13:50:36.206Z,1.10
2022-09-28T13:53:21.985Z,1.15
2022-09-28T13:56:02.454Z,1.27
2022-09-28T13:58:38.778Z,0.90
2022-09-28T14:01:16.311Z,1.08
2022-09-28T14:03:57.460Z,0.90
2022-09-28T14:06:29.424Z,0.90
2022-09-28T14:09:33.916Z,1.08
2022-09-28T14:12:05.041Z,1.00
2022-09-28T14:14:50.332Z,1.00
2022-09-28T14:17:57.195Z,0.85
2022-09-28T14:20:30.076Z,0.80
2022-09-28T14:23:22.652Z,0.90
2022-09-28T14:26:09.549Z,0.70
2022-09-28T14:28:54.572Z,0.90
2022-09-28T14:31:30.076Z,1.02
2022-09-28T14:34:11.773Z,0.98
2022-09-28T14:37:02.943Z,0.93
2022-09-28T14:39:48.446Z,0.90
2022-09-28T14:42:22.128Z,0.80
2022-09-28T14:45:23.625Z,1.27
2022-09-28T14:48:16.457Z,0.85
2022-09-28T14:50:50.354Z,1.27
2022-09-28T14:53:23.248Z,1.17
2022-09-28T14:55:57.433Z,1.10
2022-09-28T14:58:32.629Z,1.10
2022-09-28T15:01:06.318Z,0.88
2022-09-28T15:03:41.250Z,1.00
2022-09-28T15:06:19.889Z,0.90
2022-09-28T15:08:50.177Z,0.90
2022-09-28T15:11:24.883Z,1.00
2022-09-28T15:14:10.871Z,0.90
2022-09-28T15:16:41.340Z,0.90
2022-09-28T15:19:26.449Z,0.77
2022-09-28T15:22:02.227Z,0.73
2022-09-28T15:24:34.600Z,1.00
2022-09-28T15:27:06.460Z,0.80
2022-09-28T15:29:36.645Z,0.82
2022-09-28T15:32:06.883Z,0.77
2022-09-28T15:34:51.017Z,0.70
2022-09-28T15:39:57.844Z,0.90
2022-09-28T15:42:28.698Z,1.00
2022-09-28T15:45:06.273Z,1.20
2022-09-28T15:47:40.203Z,0.80
2022-09-28T15:50:24.536Z,1.15
2022-09-28T15:55:34.451Z,0.80
2022-09-28T15:58:10.462Z,0.90
2022-09-28T16:00:41.702Z,0.90
2022-09-28T16:03:25.429Z,0.90
2022-09-28T16:06:09.534Z,0.70
2022-09-28T16:08:49.037Z,1.00
2022-09-28T16:11:24.386Z,0.68
2022-09-28T16:14:01.909Z,0.88
2022-09-28T16:16:35.821Z,0.70
2022-09-28T16:21:47.495Z,0.85
2022-09-28T16:24:30.586Z,0.90
2022-09-28T16:27:03.773Z,1.10
2022-09-28T16:29:40.389Z,0.80
2022-09-28T16:32:38.580Z,1.17
2022-09-28T16:35:21.488Z,1.42
2022-09-28T16:37:59.384Z,1.20
2022-09-28T16:40:33.894Z,1.33
2022-09-28T16:43:07.037Z,1.75
2022-09-28T16:45:38.127Z,1.47
2022-09-28T16:48:08.952Z,1.38
2022-09-28T16:50:40.194Z,1.35
2022-09-28T16:53:28.480Z,1.33
2022-09-28T16:56:04.313Z,1.20
2022-09-28T16:58:39.226Z,1.50
2022-09-28T17:01:11.099Z,1.50
2022-09-28T17:03:42.756Z,1.52
2022-09-28T17:06:15.469Z,1.60
2022-09-28T17:08:46.266Z,1.90
2022-09-28T17:11:24.469Z,1.73
2022-09-28T17:14:00.305Z,1.58
2022-09-28T17:16:57.637Z,1.50
2022-09-28T17:19:28.770Z,1.90
2022-09-28T17:22:01.853Z,2.17
2022-09-28T17:24:34.646Z,1.65
2022-09-28T17:27:07.606Z,1.98
2022-09-28T17:29:40.283Z,1.50
2022-09-28T17:32:19.865Z,1.50
2022-09-28T17:35:00.925Z,2.08
2022-09-28T17:37:40.999Z,2.08
2022-09-28T17:40:21.041Z,1.90
2022-09-28T17:42:56.278Z,1.83
2022-09-28T17:45:28.785Z,2.08
2022-09-28T17:47:59.269Z,2.08
2022-09-28T17:50:32.550Z,2.05
2022-09-28T17:53:06.194Z,2.00
2022-09-28T17:55:37.616Z,1.55
2022-09-28T17:58:19.436Z,1.58
2022-09-28T18:00:52.209Z,1.83
2022-09-28T18:03:23.795Z,2.28
2022-09-28T18:06:04.358Z,2.08
2022-09-28T18:08:34.753Z,2.42
2022-09-28T18:11:05.469Z,3.00
2022-09-28T18:13:38.454Z,2.20
2022-09-28T18:16:09.468Z,2.53
2022-09-28T18:18:40.241Z,2.63
2022-09-28T18:21:12.265Z,1.90
2022-09-28T18:23:42.570Z,2.17
2022-09-28T18:26:19.174Z,2.20
2022-09-28T18:28:52.099Z,2.10
2022-09-28T18:31:22.492Z,2.50
2022-09-28T18:33:53.043Z,2.25
2022-09-28T18:36:23.485Z,2.10
2022-09-28T18:38:55.452Z,1.80
2022-09-28T18:41:25.869Z,2.05
2022-09-28T18:44:00.962Z,1.67
2022-09-28T18:46:36.519Z,2.03
2022-09-28T18:49:07.433Z,1.90
2022-09-28T18:51:37.757Z,1.95
2022-09-28T18:54:10.924Z,1.90
2022-09-28T18:56:41.360Z,1.65
2022-09-28T18:59:15.028Z,1.70
2022-09-28T19:01:45.273Z,1.77
2022-09-28T19:04:15.768Z,1.77
2022-09-28T19:06:50.598Z,1.83
2022-09-28T19:09:26.971Z,2.00
2022-09-28T19:11:57.161Z,1.83
2022-09-28T19:14:32.501Z,2.38
2022-09-28T19:17:02.979Z,2.40
2022-09-28T19:19:33.200Z,2.30
2022-09-28T19:22:03.833Z,1.77
2022-09-28T19:24:33.987Z,1.83
2022-09-28T19:27:06.943Z,1.80
2022-09-28T19:29:39.758Z,1.70
2022-09-28T19:32:12.369Z,1.63
2022-09-28T19:34:42.544Z,1.75
2022-09-28T19:37:12.638Z,1.63
2022-09-28T19:39:42.977Z,1.70
2022-09-28T19:42:13.183Z,1.63
2022-09-28T19:44:46.606Z,2.20
2022-09-28T19:47:21.829Z,1.77
2022-09-28T19:49:52.015Z,3.50
2022-09-28T19:52:22.271Z,2.10
2022-09-28T19:54:57.059Z,1.63
2022-09-28T19:57:31.854Z,2.15
2022-09-28T20:00:05.003Z,2.28
2022-09-28T20:02:36.279Z,2.45
2022-09-28T20:05:06.886Z,2.17
2022-09-28T20:07:40.016Z,2.10
2022-09-28T20:10:12.101Z,2.58
2022-09-28T20:12:42.545Z,2.17
2022-09-28T20:15:17.132Z,2.80
2022-09-28T20:17:47.345Z,2.55
2022-09-28T20:20:18.404Z,2.28
2022-09-28T20:22:48.551Z,2.38
2022-09-28T20:25:18.903Z,2.60
2022-09-28T20:27:51.301Z,2.92
2022-09-28T20:30:24.457Z,2.35
2022-09-28T20:32:54.546Z,2.55
2022-09-28T20:35:32.606Z,2.20
2022-09-28T20:38:08.175Z,2.13
2022-09-28T20:40:40.347Z,1.80
2022-09-28T20:43:10.920Z,2.17
2022-09-28T20:45:44.119Z,2.20
2022-09-28T20:48:14.318Z,2.60
2022-09-28T20:50:45.276Z,1.65
2022-09-28T20:53:15.446Z,1.50
2022-09-28T20:55:45.561Z,1.83
2022-09-28T20:58:15.767Z,1.73
2022-09-28T21:00:48.575Z,1.50
2022-09-28T21:03:20.908Z,1.50
2022-09-28T21:05:53.963Z,1.60
2022-09-28T21:08:25.358Z,1.42
2022-09-28T21:10:55.921Z,1.50
2022-09-28T21:13:26.691Z,1.60
2022-09-28T21:16:04.734Z,2.28
2022-09-28T21:18:35.011Z,2.05
2022-09-28T21:21:08.050Z,2.20
2022-09-28T21:23:38.848Z,3.00
2022-09-28T21:26:11.258Z,2.30
2022-09-28T21:28:42.416Z,3.17
2022-09-28T21:31:15.782Z,3.00
2022-09-28T21:33:46.054Z,2.95
2022-09-28T21:36:16.206Z,3.45
2022-09-28T21:38:46.781Z,3.38
2022-09-28T21:41:16.967Z,2.97
2022-09-28T21:43:48.377Z,3.08
2022-09-28T21:46:21.516Z,2.38
2022-09-28T21:48:55.775Z,2.53
2022-09-28T21:51:25.991Z,3.25
2022-09-28T21:53:56.209Z,3.42
2022-09-28T21:56:26.947Z,3.72
2022-09-28T21:58:57.095Z,3.13
2022-09-28T22:01:30.006Z,3.10
2022-09-28T22:04:00.951Z,3.22
2022-09-28T22:06:31.171Z,3.03
2022-09-28T22:09:01.367Z,3.03
2022-09-28T22:11:31.824Z,2.80
2022-09-28T22:14:03.277Z,3.03
2022-09-28T22:16:36.036Z,2.67
2022-09-28T22:19:06.237Z,2.65
2022-09-28T22:21:37.157Z,2.75
2022-09-28T22:24:09.338Z,3.17
2022-09-28T22:26:40.869Z,2.40
2022-09-28T22:29:12.842Z,2.63
2022-09-28T22:31:45.651Z,2.33
2022-09-28T22:34:15.775Z,2.65
2022-09-28T22:36:45.991Z,2.22
2022-09-28T22:39:16.262Z,2.78
2022-09-28T22:41:46.400Z,2.30
2022-09-28T22:44:16.627Z,2.72
2022-09-28T22:46:49.772Z,2.03
2022-09-28T22:49:20.232Z,1.83
2022-09-28T22:51:50.410Z,2.10
2022-09-28T22:54:21.686Z,1.90
2022-09-28T22:56:51.871Z,2.25
2022-09-28T22:59:22.011Z,2.40
2022-09-28T23:01:54.803Z,2.40
2022-09-28T23:04:24.968Z,2.20
2022-09-28T23:06:55.126Z,2.60
2022-09-28T23:09:25.349Z,2.53
2022-09-28T23:11:55.491Z,2.38
2022-09-28T23:14:25.565Z,2.55
2022-09-28T23:16:58.311Z,3.70
2022-09-28T23:19:28.612Z,2.78
2022-09-28T23:21:59.441Z,3.10
2022-09-28T23:24:29.526Z,2.78
2022-09-28T23:26:59.723Z,2.55
2022-09-28T23:29:30.005Z,2.63
2022-09-28T23:32:02.859Z,2.50
2022-09-28T23:34:32.947Z,1.63
2022-09-28T23:37:03.109Z,2.05
2022-09-28T23:39:33.368Z,2.95
2022-09-28T23:42:04.099Z,1.98
2022-09-28T23:44:34.242Z,1.90
2022-09-28T23:47:07.010Z,2.00
2022-09-28T23:49:37.336Z,1.92
2022-09-28T23:52:07.522Z,1.80
2022-09-28T23:54:37.646Z,1.73
2022-09-28T23:57:07.839Z,1.90
2022-09-28T23:59:37.978Z,2.22
